Time;durP1;ratioP1;P1;durP2;ratioP2;P2;SDS_P1;SDS_P2;PMS_P1;PMS_P2;Temp;Humidity;BMP_temperature;BMP_pressure;BME280_temperature;BME280_humidity;BME280_pressure;Samples;Min_cycle;Max_cycle;Signal;HPM_P1;HPM_P2
2022/06/26 00:01:34;;;;;;;24.60;2.70;;;19.70;23.10;;;;;;4973776;28;20488;-64
2022/06/26 00:04:01;;;;;;;23.00;3.20;;;19.80;22.70;;;;;;4979239;28;20559;-64
2022/06/26 00:06:29;;;;;;;25.07;3.10;;;19.80;23.60;;;;;;4980457;28;20838;-65
2022/06/26 00:08:56;;;;;;;22.50;3.23;;;19.70;24.30;;;;;;4980727;28;20491;-64
2022/06/26 00:11:23;;;;;;;23.33;3.70;;;19.60;25.10;;;;;;4978591;28;20496;-65
2022/06/26 00:13:50;;;;;;;23.60;3.47;;;19.50;25.70;;;;;;4983652;28;20481;-65
2022/06/26 00:16:17;;;;;;;22.13;3.80;;;19.50;25.60;;;;;;4977659;28;20476;-63
2022/06/26 00:18:44;;;;;;;23.37;3.33;;;19.40;25.90;;;;;;4987207;28;20987;-64
2022/06/26 00:21:10;;;;;;;22.00;2.93;;;19.30;28.20;;;;;;4983783;28;20546;-66
2022/06/26 00:23:38;;;;;;;22.37;3.43;;;19.20;28.90;;;;;;4981439;28;20485;-65
2022/06/26 00:26:06;;;;;;;22.93;3.47;;;19.10;29.20;;;;;;4977083;28;20552;-63
2022/06/26 00:28:33;;;;;;;21.60;3.10;;;19.10;29.50;;;;;;4979980;28;20473;-64
2022/06/26 00:31:01;;;;;;;22.57;3.23;;;19.00;30.20;;;;;;4982638;28;20470;-64
2022/06/26 00:33:27;;;;;;;27.33;3.50;;;18.90;30.70;;;;;;4972148;28;20486;-64
2022/06/26 00:35:54;;;;;;;21.80;2.97;;;18.80;30.60;;;;;;4971350;28;21114;-65
2022/06/26 00:38:21;;;;;;;23.17;3.40;;;18.80;30.30;;;;;;4976684;28;20456;-64
2022/06/26 00:40:49;;;;;;;26.93;3.40;;;18.70;31.30;;;;;;4976801;28;20453;-62
2022/06/26 00:43:16;;;;;;;24.00;3.80;;;18.70;31.40;;;;;;4975070;28;20485;-64
2022/06/26 00:45:42;;;;;;;22.73;3.70;;;18.60;31.70;;;;;;4979897;28;20469;-64
2022/06/26 00:48:09;;;;;;;22.30;2.67;;;18.60;31.30;;;;;;4980439;28;20457;-63
2022/06/26 00:50:36;;;;;;;23.50;3.30;;;18.60;30.90;;;;;;4974458;28;20475;-64
2022/06/26 00:53:05;;;;;;;22.60;3.40;;;18.70;30.40;;;;;;4969516;28;20505;-64
2022/06/26 00:55:33;;;;;;;26.63;3.90;;;18.70;30.40;;;;;;4971667;28;20464;-66
2022/06/26 00:58:01;;;;;;;23.20;3.60;;;18.70;31.10;;;;;;4977505;28;20497;-65
2022/06/26 01:00:28;;;;;;;26.60;4.10;;;18.70;31.40;;;;;;4979439;28;20492;-65
2022/06/26 01:02:55;;;;;;;24.43;4.13;;;18.70;31.10;;;;;;4979935;28;21023;-65
2022/06/26 01:05:22;;;;;;;27.10;4.43;;;18.60;31.20;;;;;;4976382;28;21034;-63
2022/06/26 01:07:49;;;;;;;24.03;4.67;;;18.70;31.20;;;;;;4979198;28;20465;-64
2022/06/26 01:10:17;;;;;;;24.73;4.67;;;18.70;31.10;;;;;;4976987;28;20461;-65
2022/06/26 01:12:44;;;;;;;24.33;4.60;;;18.70;31.10;;;;;;4977570;28;20485;-64
2022/06/26 01:15:12;;;;;;;23.70;4.47;;;18.60;31.10;;;;;;4980428;28;20469;-66
2022/06/26 01:17:40;;;;;;;27.63;4.50;;;18.70;31.40;;;;;;4976428;28;20464;-65
2022/06/26 01:20:08;;;;;;;26.10;4.03;;;18.60;31.50;;;;;;4979589;28;20477;-65
2022/06/26 01:22:37;;;;;;;25.67;4.00;;;18.60;31.40;;;;;;4974586;28;21038;-65
2022/06/26 01:25:04;;;;;;;26.27;4.47;;;18.60;31.10;;;;;;4979787;28;20481;-64
2022/06/26 01:27:31;;;;;;;25.40;4.90;;;18.50;31.00;;;;;;4977028;28;20461;-65
2022/06/26 01:29:58;;;;;;;24.60;3.53;;;18.60;30.70;;;;;;4975703;28;20462;-64
2022/06/26 01:32:25;;;;;;;24.73;4.00;;;18.60;30.40;;;;;;4981941;28;20487;-65
2022/06/26 01:34:53;;;;;;;26.10;3.80;;;18.70;30.40;;;;;;4978104;28;20994;-66
2022/06/26 01:37:20;;;;;;;29.57;4.50;;;18.70;30.20;;;;;;4980797;28;20465;-64
2022/06/26 01:39:48;;;;;;;28.10;4.10;;;18.70;30.40;;;;;;4976480;28;22976;-66
2022/06/26 01:42:15;;;;;;;24.33;3.70;;;18.70;30.70;;;;;;4972380;28;20489;-67
2022/06/26 01:44:42;;;;;;;24.03;3.77;;;18.70;30.50;;;;;;4975241;28;20457;-64
2022/06/26 01:47:09;;;;;;;25.73;3.80;;;18.70;31.10;;;;;;4979775;28;20541;-65
2022/06/26 01:49:35;;;;;;;26.10;5.00;;;18.70;31.00;;;;;;4975563;28;20472;-66
2022/06/26 01:52:02;;;;;;;25.20;4.57;;;18.80;31.20;;;;;;4978229;28;20493;-64
2022/06/26 01:54:29;;;;;;;25.70;5.17;;;18.80;30.70;;;;;;4981144;28;20464;-65
2022/06/26 01:56:57;;;;;;;27.13;5.70;;;18.80;30.60;;;;;;4976751;28;20470;-65
2022/06/26 01:59:24;;;;;;;27.83;5.10;;;18.90;30.80;;;;;;4977347;28;20997;-64
2022/06/26 02:01:51;;;;;;;35.00;6.07;;;18.90;30.80;;;;;;4969200;28;20474;-65
2022/06/26 02:04:18;;;;;;;25.83;5.43;;;18.90;30.30;;;;;;4984704;28;21246;-66
2022/06/26 02:06:46;;;;;;;29.73;5.23;;;18.90;30.80;;;;;;4976623;28;20700;-65
2022/06/26 02:13:36;;;;;;;28.23;4.93;;;18.90;30.40;;;;;;4982433;28;20464;-66
2022/06/26 02:14:45;;;;;;;28.40;4.63;;;18.90;31.20;;;;;;4978102;28;20474;-65
2022/06/26 02:17:12;;;;;;;26.63;4.40;;;18.90;31.10;;;;;;4981022;28;20847;-64
2022/06/26 02:19:39;;;;;;;27.33;4.87;;;18.80;31.40;;;;;;4977732;28;20460;-63
2022/06/26 02:22:06;;;;;;;26.30;4.33;;;18.80;31.10;;;;;;4973384;28;20482;-64
2022/06/26 02:24:32;;;;;;;27.17;4.43;;;18.80;30.90;;;;;;4981557;28;21179;-65
2022/06/26 02:27:00;;;;;;;24.83;3.97;;;18.80;31.10;;;;;;4980266;28;20472;-65
2022/06/26 02:29:27;;;;;;;25.20;3.80;;;18.80;31.00;;;;;;4977698;28;20468;-66
2022/06/26 02:31:54;;;;;;;26.67;3.90;;;18.60;31.20;;;;;;4977362;28;20482;-64
2022/06/26 02:34:21;;;;;;;25.77;4.57;;;18.60;31.20;;;;;;4979892;28;20465;-65
2022/06/26 02:36:48;;;;;;;25.13;4.50;;;18.50;31.70;;;;;;4980384;28;20964;-63
2022/06/26 02:39:14;;;;;;;30.80;4.70;;;18.40;32.10;;;;;;4985929;28;20464;-64
2022/06/26 02:41:41;;;;;;;24.50;4.67;;;18.40;32.60;;;;;;4970725;28;20464;-65
2022/06/26 02:44:09;;;;;;;24.50;4.93;;;18.30;33.30;;;;;;4981589;28;20828;-65
2022/06/26 02:46:36;;;;;;;23.47;4.57;;;18.20;33.80;;;;;;4984375;28;20457;-65
2022/06/26 02:49:03;;;;;;;27.07;4.83;;;18.20;34.10;;;;;;4976160;28;20465;-66
2022/06/26 02:51:29;;;;;;;26.03;5.50;;;18.10;35.20;;;;;;4981186;28;21211;-64
2022/06/26 02:53:56;;;;;;;25.57;4.70;;;18.10;35.10;;;;;;4983205;28;20489;-64
2022/06/26 02:56:23;;;;;;;24.77;4.57;;;18.10;35.30;;;;;;4983501;28;20469;-67
2022/06/26 02:58:50;;;;;;;23.90;4.93;;;18.10;35.50;;;;;;4980491;28;20469;-64
2022/06/26 03:01:18;;;;;;;25.80;5.90;;;18.10;35.60;;;;;;4980721;28;20477;-64
2022/06/26 03:03:44;;;;;;;24.47;4.60;;;18.10;35.70;;;;;;4978366;28;20507;-64
2022/06/26 03:06:11;;;;;;;25.33;4.07;;;18.10;35.40;;;;;;4987603;28;20896;-64
2022/06/26 03:08:38;;;;;;;26.70;4.77;;;18.00;35.80;;;;;;4980374;28;20467;-64
2022/06/26 03:11:05;;;;;;;25.90;5.20;;;18.00;35.90;;;;;;4979437;28;20470;-66
2022/06/26 03:13:31;;;;;;;28.40;4.70;;;18.00;35.70;;;;;;4977166;28;20481;-64
2022/06/26 03:15:58;;;;;;;27.70;4.83;;;18.00;35.80;;;;;;4982558;28;20464;-65
2022/06/26 03:18:26;;;;;;;26.10;4.80;;;18.00;36.10;;;;;;4979357;28;20461;-66
2022/06/26 03:20:53;;;;;;;26.43;5.00;;;18.00;35.70;;;;;;4980474;28;20457;-65
2022/06/26 03:23:20;;;;;;;24.90;4.30;;;18.10;35.40;;;;;;4975555;28;20488;-64
2022/06/26 03:25:46;;;;;;;27.67;5.20;;;18.10;35.20;;;;;;4980059;28;20461;-65
2022/06/26 03:28:13;;;;;;;24.73;4.13;;;18.10;34.80;;;;;;4980650;28;20465;-65
2022/06/26 03:30:40;;;;;;;25.40;5.20;;;18.10;35.00;;;;;;4987758;28;20467;-64
2022/06/26 03:33:07;;;;;;;29.00;5.80;;;18.10;34.80;;;;;;4982979;28;20500;-65
2022/06/26 03:35:35;;;;;;;28.07;4.93;;;18.20;34.40;;;;;;4981611;28;21184;-65
2022/06/26 03:38:01;;;;;;;25.67;4.37;;;18.20;34.30;;;;;;4986231;28;20467;-66
2022/06/26 03:40:28;;;;;;;24.70;4.27;;;18.20;34.90;;;;;;4983440;28;20842;-65
2022/06/26 03:42:55;;;;;;;25.10;4.70;;;18.10;35.70;;;;;;4977666;28;20485;-65
2022/06/26 03:45:22;;;;;;;30.83;4.77;;;18.10;35.50;;;;;;4980466;28;21037;-66
2022/06/26 03:47:48;;;;;;;34.23;5.73;;;18.00;35.40;;;;;;4976932;28;20854;-65
2022/06/26 03:50:17;;;;;;;25.23;3.83;;;17.90;35.50;;;;;;4980683;28;20957;-65
2022/06/26 03:52:45;;;;;;;27.90;4.50;;;17.80;35.80;;;;;;4985068;28;21104;-66
2022/06/26 03:55:12;;;;;;;24.57;3.90;;;17.70;36.60;;;;;;4979389;28;21072;-64
2022/06/26 03:57:38;;;;;;;24.07;3.87;;;17.60;36.90;;;;;;4981384;28;20462;-66
2022/06/26 04:00:06;;;;;;;26.40;5.00;;;17.60;37.30;;;;;;4981720;28;20465;-67
2022/06/26 04:02:33;;;;;;;25.53;5.30;;;17.60;37.30;;;;;;5007349;22;20480;-64
2022/06/26 04:05:01;;;;;;;30.33;4.97;;;17.50;37.10;;;;;;5007885;28;20464;-63
2022/06/26 04:07:28;;;;;;;26.00;5.07;;;17.50;37.50;;;;;;4998496;28;20468;-63
2022/06/26 04:09:56;;;;;;;26.67;5.63;;;17.50;37.20;;;;;;5007811;28;20455;-63
2022/06/26 04:12:22;;;;;;;26.60;4.70;;;17.50;37.20;;;;;;5009051;28;20488;-63
2022/06/26 04:14:49;;;;;;;29.30;6.03;;;17.60;37.00;;;;;;4989765;28;20475;-63
2022/06/26 04:17:16;;;;;;;27.30;5.00;;;17.60;37.20;;;;;;4979752;28;20492;-62
2022/06/26 04:19:43;;;;;;;26.63;5.37;;;17.60;37.10;;;;;;4978463;28;20465;-63
2022/06/26 04:22:10;;;;;;;24.77;4.43;;;17.80;36.60;;;;;;4986719;28;20471;-63
2022/06/26 04:24:37;;;;;;;25.70;4.57;;;17.90;36.60;;;;;;4995205;28;20471;-63
2022/06/26 04:27:06;;;;;;;25.13;5.20;;;18.10;37.50;;;;;;4994559;28;20460;-64
2022/06/26 04:29:32;;;;;;;24.17;4.90;;;18.30;37.70;;;;;;4991826;28;20456;-62
2022/06/26 04:31:59;;;;;;;25.50;4.93;;;18.40;38.40;;;;;;4986124;28;20485;-62
2022/06/26 04:34:26;;;;;;;25.20;4.23;;;18.80;38.70;;;;;;4984958;28;20994;-61
2022/06/26 04:36:53;;;;;;;31.33;4.83;;;19.40;37.50;;;;;;4984122;28;21182;-62
2022/06/26 04:39:19;;;;;;;26.90;4.23;;;20.40;34.80;;;;;;4990642;28;21197;-62
2022/06/26 04:41:47;;;;;;;27.80;4.23;;;21.50;31.50;;;;;;4989862;28;20460;-61
2022/06/26 04:44:17;;;;;;;27.07;4.00;;;22.80;28.40;;;;;;4985349;28;20494;-62
2022/06/26 04:46:46;;;;;;;33.43;4.90;;;23.90;24.00;;;;;;4980831;28;20503;-61
2022/06/26 04:49:13;;;;;;;27.80;3.40;;;24.90;20.70;;;;;;4979720;28;20568;-64
2022/06/26 04:51:40;;;;;;;29.50;4.53;;;25.90;18.10;;;;;;4991609;28;20490;-62
2022/06/26 04:54:09;;;;;;;27.57;3.30;;;26.60;16.20;;;;;;5003060;28;20516;-61
2022/06/26 04:56:37;;;;;;;28.33;4.37;;;27.30;14.30;;;;;;4991967;28;20471;-62
2022/06/26 04:59:04;;;;;;;27.83;3.60;;;27.70;12.80;;;;;;4985614;28;20552;-65
2022/06/26 05:01:33;;;;;;;29.47;3.70;;;27.50;12.50;;;;;;4984693;28;20492;-61
2022/06/26 05:04:00;;;;;;;27.37;3.50;;;26.50;13.80;;;;;;4992766;28;20551;-61
2022/06/26 05:06:26;;;;;;;30.50;4.10;;;25.60;15.20;;;;;;4994508;28;20463;-61
2022/06/26 05:08:53;;;;;;;26.87;3.70;;;24.90;16.80;;;;;;4981996;28;20461;-61
2022/06/26 05:11:20;;;;;;;26.77;3.97;;;24.40;18.00;;;;;;4978697;28;20828;-61
2022/06/26 05:13:47;;;;;;;27.07;4.10;;;24.10;19.20;;;;;;4990311;28;20498;-61
2022/06/26 05:16:13;;;;;;;27.90;3.83;;;23.80;20.00;;;;;;4979996;28;20464;-64
2022/06/26 05:18:42;;;;;;;26.47;3.70;;;23.60;20.70;;;;;;4988455;28;20456;-61
2022/06/26 05:21:08;;;;;;;25.30;3.20;;;23.30;21.30;;;;;;4986981;28;20460;-64
2022/06/26 05:23:35;;;;;;;25.50;3.80;;;23.10;22.00;;;;;;4985335;28;20470;-64
2022/06/26 05:26:02;;;;;;;25.23;3.70;;;23.00;22.30;;;;;;4991696;28;20468;-63
2022/06/26 05:28:28;;;;;;;28.87;5.03;;;22.80;23.00;;;;;;4978805;28;20464;-64
2022/06/26 05:30:55;;;;;;;26.33;4.50;;;22.70;23.60;;;;;;4984659;28;20476;-64
2022/06/26 05:33:22;;;;;;;26.63;3.60;;;22.60;24.10;;;;;;4990725;28;20493;-62
2022/06/26 05:35:50;;;;;;;25.20;3.77;;;22.50;24.90;;;;;;4981094;28;20472;-63
2022/06/26 05:38:17;;;;;;;26.40;3.80;;;22.50;25.40;;;;;;4985789;28;20468;-63
2022/06/26 05:40:43;;;;;;;25.53;4.57;;;22.50;25.40;;;;;;4985294;28;20469;-64
2022/06/26 05:43:10;;;;;;;26.07;3.90;;;22.60;25.00;;;;;;4988919;28;20500;-63
2022/06/26 05:45:37;;;;;;;26.37;4.47;;;22.60;25.20;;;;;;4987981;28;20470;-63
2022/06/26 05:48:04;;;;;;;25.80;4.70;;;22.80;25.20;;;;;;4984927;28;20497;-64
2022/06/26 05:50:31;;;;;;;25.37;3.40;;;23.10;24.90;;;;;;4986374;28;20458;-64
2022/06/26 05:52:59;;;;;;;27.63;4.10;;;23.20;24.80;;;;;;4990383;28;20496;-64
2022/06/26 05:55:26;;;;;;;25.90;4.10;;;23.40;24.40;;;;;;4991183;28;20503;-63
2022/06/26 05:57:52;;;;;;;26.97;3.80;;;23.40;24.20;;;;;;4982347;28;20473;-63
2022/06/26 06:00:19;;;;;;;26.80;3.70;;;23.70;25.10;;;;;;4985759;28;20477;-64
2022/06/26 06:02:46;;;;;;;29.00;3.87;;;26.20;21.90;;;;;;4990637;28;20481;-64
2022/06/26 06:05:13;;;;;;;27.27;3.50;;;29.30;15.70;;;;;;4990482;28;20468;-63
2022/06/26 06:07:40;;;;;;;27.63;3.80;;;32.10;11.00;;;;;;4987268;28;20496;-63
2022/06/26 06:10:10;;;;;;;27.57;3.63;;;34.30;6.10;;;;;;4995077;28;20496;-64
2022/06/26 06:12:37;;;;;;;29.53;3.90;;;36.20;3.70;;;;;;4978707;28;20488;-64
2022/06/26 06:15:05;;;;;;;24.60;3.00;;;37.90;1.40;;;;;;4986305;28;20977;-64
2022/06/26 06:17:40;;;;;;;23.60;2.63;;;39.40;1.00;;;;;;4984323;28;20462;-63
2022/06/26 06:20:10;;;;;;;23.90;3.00;;;39.90;1.00;;;;;;4984164;28;20547;-64
2022/06/26 06:22:37;;;;;;;23.43;2.93;;;40.30;1.00;;;;;;4985502;28;21085;-64
2022/06/26 06:25:04;;;;;;;23.60;2.83;;;41.40;1.00;;;;;;4987190;28;20465;-64
2022/06/26 06:27:33;;;;;;;22.60;2.37;;;42.60;1.00;;;;;;4985434;28;20501;-64
2022/06/26 06:30:00;;;;;;;22.60;2.60;;;41.60;1.00;;;;;;4985622;28;20469;-63
2022/06/26 06:32:27;;;;;;;23.20;2.30;;;39.50;1.00;;;;;;4996811;28;20476;-64
2022/06/26 06:34:54;;;;;;;23.07;2.77;;;37.50;1.00;;;;;;4993467;28;20480;-63
2022/06/26 06:37:20;;;;;;;24.10;2.77;;;36.70;1.00;;;;;;4997801;28;20504;-64
2022/06/26 06:39:47;;;;;;;23.70;3.37;;;35.40;1.00;;;;;;4987799;28;20588;-63
2022/06/26 06:42:14;;;;;;;26.33;3.10;;;34.10;1.00;;;;;;4987075;28;20453;-63
2022/06/26 06:44:42;;;;;;;23.83;3.30;;;33.30;2.20;;;;;;4995808;28;20472;-64
2022/06/26 06:47:09;;;;;;;24.07;2.57;;;35.20;2.00;;;;;;4995686;28;20460;-64
2022/06/26 06:49:36;;;;;;;24.17;2.90;;;38.10;1.00;;;;;;4983399;28;21031;-63
2022/06/26 06:52:03;;;;;;;23.30;3.67;;;40.60;1.00;;;;;;4981044;28;20469;-64
2022/06/26 06:54:29;;;;;;;23.10;3.03;;;42.70;1.00;;;;;;4985022;28;20468;-64
2022/06/26 06:56:56;;;;;;;23.67;2.80;;;44.30;1.00;;;;;;4981800;28;20468;-64
2022/06/26 06:59:23;;;;;;;22.47;2.30;;;45.70;1.00;;;;;;4985119;28;20465;-63
2022/06/26 07:01:51;;;;;;;23.57;2.87;;;46.70;1.00;;;;;;4984964;28;20477;-63
2022/06/26 07:04:19;;;;;;;22.63;2.43;;;47.80;1.00;;;;;;4981207;28;20489;-63
2022/06/26 07:06:46;;;;;;;20.73;2.30;;;48.60;1.00;;;;;;4981638;28;20503;-62
2022/06/26 07:09:13;;;;;;;22.77;2.53;;;49.10;1.00;;;;;;4987005;28;20472;-64
2022/06/26 07:11:40;;;;;;;20.90;2.20;;;49.60;1.00;;;;;;4986098;28;20860;-64
2022/06/26 07:14:07;;;;;;;21.80;2.20;;;50.00;1.00;;;;;;4984157;28;20705;-64
2022/06/26 07:16:35;;;;;;;20.83;2.30;;;50.40;1.00;;;;;;4985305;28;20466;-64
2022/06/26 07:19:04;;;;;;;21.67;3.03;;;51.00;1.00;;;;;;4986088;28;21350;-60
2022/06/26 07:21:30;;;;;;;21.00;2.20;;;51.50;1.00;;;;;;4986309;28;20495;-61
2022/06/26 07:23:57;;;;;;;21.40;2.30;;;52.10;1.00;;;;;;4987967;28;20485;-61
2022/06/26 07:26:24;;;;;;;19.67;2.20;;;52.90;1.00;;;;;;4983091;28;20534;-63
2022/06/26 07:28:51;;;;;;;19.93;2.10;;;53.40;1.00;;;;;;4987640;28;20581;-62
2022/06/26 07:31:18;;;;;;;19.13;2.20;;;53.90;1.00;;;;;;4980411;28;21025;-63
2022/06/26 07:36:30;;;;;;;19.43;2.00;;;54.20;1.00;;;;;;4987301;28;20455;-64
2022/06/26 07:38:57;;;;;;;19.17;2.37;;;54.50;1.00;;;;;;4988267;28;20464;-63
2022/06/26 07:41:23;;;;;;;20.40;1.90;;;54.90;1.00;;;;;;4986508;28;20469;-64
2022/06/26 07:43:50;;;;;;;20.40;2.50;;;55.20;1.00;;;;;;4987817;28;20486;-63
2022/06/26 07:46:17;;;;;;;18.63;1.90;;;55.50;1.00;;;;;;4980436;28;20465;-63
2022/06/26 07:48:44;;;;;;;21.27;1.70;;;55.80;1.00;;;;;;4979214;28;20465;-62
2022/06/26 07:51:10;;;;;;;18.37;1.73;;;56.20;1.00;;;;;;4983659;28;20491;-62
2022/06/26 07:53:38;;;;;;;20.57;1.73;;;56.40;1.00;;;;;;4988104;28;20493;-63
2022/06/26 07:56:06;;;;;;;18.43;2.10;;;56.10;1.00;;;;;;4992790;28;20472;-62
2022/06/26 07:58:33;;;;;;;18.77;2.30;;;56.10;1.00;;;;;;4982822;28;20475;-64
2022/06/26 08:00:59;;;;;;;18.80;2.43;;;56.50;1.00;;;;;;4980104;28;20476;-65
2022/06/26 08:03:26;;;;;;;19.37;2.67;;;56.90;1.00;;;;;;4973453;28;20495;-62
2022/06/26 08:05:53;;;;;;;18.13;2.10;;;57.20;1.00;;;;;;4982669;28;20468;-64
2022/06/26 08:08:20;;;;;;;18.47;1.83;;;57.70;1.00;;;;;;4982040;28;20472;-66
2022/06/26 08:10:48;;;;;;;18.50;1.87;;;57.90;1.00;;;;;;4979312;28;20465;-65
2022/06/26 08:13:15;;;;;;;17.90;2.17;;;58.00;1.00;;;;;;4976338;28;20485;-63
2022/06/26 08:15:41;;;;;;;19.17;1.80;;;58.10;1.00;;;;;;4981709;28;20540;-62
2022/06/26 08:18:08;;;;;;;18.13;1.67;;;58.30;1.00;;;;;;4986104;28;20472;-62
2022/06/26 08:20:35;;;;;;;19.00;2.17;;;58.50;1.00;;;;;;4986368;28;20675;-63
2022/06/26 08:23:02;;;;;;;20.50;2.27;;;58.20;1.00;;;;;;4992015;28;20218;-62
2022/06/26 08:25:29;;;;;;;17.80;1.60;;;57.50;1.00;;;;;;4978492;28;20461;-61
2022/06/26 08:27:57;;;;;;;17.87;1.80;;;57.00;1.00;;;;;;4985417;28;20485;-64
2022/06/26 08:30:24;;;;;;;18.20;1.40;;;57.10;1.00;;;;;;4979067;28;20524;-61
2022/06/26 08:32:51;;;;;;;18.13;2.17;;;57.60;1.00;;;;;;4979733;28;20499;-61
2022/06/26 08:35:18;;;;;;;18.20;1.83;;;57.40;1.00;;;;;;4978247;28;20229;-61
2022/06/26 08:37:45;;;;;;;19.50;1.90;;;57.40;1.00;;;;;;4972148;28;20205;-61
2022/06/26 08:40:13;;;;;;;17.97;1.70;;;57.30;1.00;;;;;;4987873;28;20527;-61
2022/06/26 08:42:41;;;;;;;18.07;1.80;;;57.70;1.00;;;;;;4983381;28;20488;-62
2022/06/26 08:45:12;;;;;;;17.70;2.10;;;57.70;1.00;;;;;;4976601;28;20555;-61
2022/06/26 08:47:40;;;;;;;18.67;1.87;;;57.50;1.00;;;;;;4978731;28;20205;-62
2022/06/26 08:50:08;;;;;;;17.50;1.40;;;57.10;1.00;;;;;;4982150;28;20472;-62
2022/06/26 08:52:35;;;;;;;18.60;1.80;;;57.60;1.00;;;;;;4984737;28;20484;-62
2022/06/26 08:55:04;;;;;;;18.02;2.05;;;58.30;1.00;;;;;;4987966;28;20739;-63
2022/06/26 08:57:33;;;;;;;17.35;1.50;;;58.70;1.00;;;;;;4981972;28;20237;-63
2022/06/26 09:00:00;;;;;;;17.60;1.95;;;59.00;1.00;;;;;;4989383;28;20212;-62
2022/06/26 09:02:28;;;;;;;19.13;2.00;;;59.00;1.00;;;;;;4977472;28;20229;-62
2022/06/26 09:04:56;;;;;;;18.15;1.90;;;58.90;1.00;;;;;;4982611;28;20217;-61
2022/06/26 09:07:23;;;;;;;17.52;1.98;;;59.10;1.00;;;;;;4986720;28;20193;-62
2022/06/26 09:09:49;;;;;;;17.55;1.83;;;59.50;1.00;;;;;;4983176;28;20858;-61
2022/06/26 09:12:16;;;;;;;18.20;1.88;;;59.60;1.00;;;;;;4970760;28;20221;-62
2022/06/26 09:14:43;;;;;;;18.15;2.00;;;59.60;1.00;;;;;;4970463;28;20225;-61
2022/06/26 09:17:10;;;;;;;17.43;1.40;;;59.10;1.00;;;;;;4985226;28;20244;-62
2022/06/26 09:19:43;;;;;;;23.27;2.23;;;58.60;1.00;;;;;;4971229;28;20210;-62
2022/06/26 09:22:11;;;;;;;18.33;1.83;;;57.30;1.00;;;;;;4975157;28;20198;-63
2022/06/26 09:24:39;;;;;;;19.10;1.93;;;55.00;1.00;;;;;;4977767;28;20490;-63
2022/06/26 09:27:10;;;;;;;18.93;2.30;;;52.60;1.00;;;;;;4976046;28;20473;-62
2022/06/26 09:29:37;;;;;;;19.50;2.10;;;50.70;1.00;;;;;;4983346;28;20501;-64
2022/06/26 09:32:11;;;;;;;22.30;2.53;;;48.80;1.00;;;;;;4971565;28;20488;-64
2022/06/26 09:34:43;;;;;;;21.20;2.00;;;47.10;1.00;;;;;;4975239;28;20501;-64
2022/06/26 09:37:10;;;;;;;21.33;2.40;;;45.50;1.00;;;;;;4975419;28;20477;-63
2022/06/26 09:39:37;;;;;;;21.30;2.80;;;43.90;1.00;;;;;;4973737;28;20473;-64
2022/06/26 09:42:15;;;;;;;21.17;2.97;;;42.50;1.00;;;;;;4975903;28;20473;-64
2022/06/26 09:44:44;;;;;;;22.20;4.17;;;41.10;1.00;;;;;;4968176;28;20491;-64
2022/06/26 09:47:22;;;;;;;21.80;3.33;;;40.00;1.00;;;;;;4972524;28;20461;-63
2022/06/26 09:49:51;;;;;;;22.43;3.50;;;39.20;1.00;;;;;;4978399;28;20457;-64
2022/06/26 09:52:18;;;;;;;23.13;3.83;;;38.50;1.00;;;;;;4979994;28;20486;-63
2022/06/26 09:54:46;;;;;;;21.60;2.67;;;37.70;1.00;;;;;;4981766;28;20511;-63
2022/06/26 09:57:14;;;;;;;23.33;4.17;;;37.00;1.00;;;;;;4977128;28;20475;-63
2022/06/26 09:59:41;;;;;;;22.57;4.73;;;36.10;1.00;;;;;;4976143;28;20465;-62
2022/06/26 10:07:49;;;;;;;23.00;3.00;;;35.00;1.00;;;;;;5015829;28;20455;-69
2022/06/26 10:10:18;;;;;;;24.00;3.17;;;34.60;1.00;;;;;;5018554;28;20508;-69
2022/06/26 10:12:48;;;;;;;28.17;7.87;;;34.30;1.00;;;;;;5017735;28;20460;-66
2022/06/26 10:15:17;;;;;;;25.40;3.90;;;33.90;1.00;;;;;;5013901;28;20489;-65
2022/06/26 10:18:00;;;;;;;22.97;3.50;;;33.70;1.00;;;;;;5027219;28;20462;-69
2022/06/26 10:20:30;;;;;;;23.53;3.23;;;33.40;1.00;;;;;;5016283;28;20468;-65
2022/06/26 10:22:57;;;;;;;23.37;3.87;;;32.90;1.00;;;;;;5019653;28;20458;-65
2022/06/26 10:25:27;;;;;;;22.83;2.90;;;32.70;2.20;;;;;;5026056;28;20470;-65
2022/06/26 10:27:54;;;;;;;22.60;3.67;;;32.50;1.00;;;;;;5015882;28;20471;-67
2022/06/26 10:30:22;;;;;;;23.40;3.30;;;32.20;1.70;;;;;;5013789;28;20463;-65
2022/06/26 10:33:07;;;;;;;24.60;3.27;;;32.10;3.20;;;;;;5018440;28;20465;-69
2022/06/26 10:35:43;;;;;;;23.10;4.07;;;31.90;1.80;;;;;;5022429;28;20459;-66
2022/06/26 10:38:22;;;;;;;24.77;3.33;;;31.70;2.20;;;;;;5021002;28;20468;-64
2022/06/26 10:43:50;;;;;;;22.70;3.13;;;31.20;3.70;;;;;;5013699;28;20968;-66
2022/06/26 10:46:21;;;;;;;22.07;2.80;;;31.20;4.10;;;;;;5017310;28;20464;-65
2022/06/26 10:48:53;;;;;;;22.27;3.10;;;30.90;3.30;;;;;;5024291;28;20559;-69
2022/06/26 10:51:27;;;;;;;22.70;2.73;;;30.80;3.80;;;;;;5022986;28;20968;-68
2022/06/26 10:53:54;;;;;;;22.03;2.80;;;30.70;4.30;;;;;;5028175;28;20487;-69
2022/06/26 10:56:22;;;;;;;23.23;3.37;;;30.50;4.50;;;;;;5027243;28;20964;-66
2022/06/26 10:58:49;;;;;;;23.20;2.70;;;30.40;5.50;;;;;;5020914;28;20550;-66
2022/06/26 11:01:17;;;;;;;22.53;2.73;;;30.30;5.80;;;;;;5018281;28;21237;-68
2022/06/26 11:03:45;;;;;;;22.57;3.60;;;30.40;6.10;;;;;;5027604;28;20486;-65
2022/06/26 11:06:14;;;;;;;23.60;3.20;;;30.50;6.20;;;;;;5014783;28;20514;-66
2022/06/26 11:08:45;;;;;;;23.20;2.93;;;30.50;5.90;;;;;;5019899;28;20530;-70
2022/06/26 11:11:15;;;;;;;23.20;3.30;;;30.60;6.00;;;;;;5021787;28;20467;-64
2022/06/26 11:13:50;;;;;;;21.60;2.70;;;30.70;5.80;;;;;;5024091;28;20487;-68
2022/06/26 11:16:17;;;;;;;22.00;3.40;;;30.80;6.80;;;;;;5022010;28;20554;-67
2022/06/26 11:18:44;;;;;;;23.40;3.30;;;30.80;6.50;;;;;;5017634;28;20463;-69
2022/06/26 11:21:10;;;;;;;23.03;3.17;;;30.80;5.40;;;;;;5025659;28;20448;-66
2022/06/26 11:23:39;;;;;;;22.70;2.70;;;30.50;4.80;;;;;;5016584;28;20479;-64
2022/06/26 11:26:08;;;;;;;23.67;3.17;;;30.50;5.20;;;;;;5026218;28;20486;-66
2022/06/26 11:28:38;;;;;;;23.50;3.00;;;30.40;6.10;;;;;;5023520;28;20452;-65
2022/06/26 11:31:07;;;;;;;24.40;3.40;;;30.40;5.20;;;;;;5012247;28;20468;-66
2022/06/26 11:33:36;;;;;;;24.90;3.13;;;30.30;5.00;;;;;;5017666;28;20491;-65
2022/06/26 11:36:05;;;;;;;23.37;3.20;;;30.00;5.10;;;;;;5018914;28;20466;-68
2022/06/26 11:38:32;;;;;;;23.40;2.73;;;29.90;4.50;;;;;;5017700;28;20473;-68
2022/06/26 11:41:01;;;;;;;23.77;2.73;;;29.90;5.00;;;;;;5026169;28;20494;-66
2022/06/26 11:43:30;;;;;;;23.87;3.00;;;29.80;5.80;;;;;;5027895;28;20479;-66
2022/06/26 11:45:58;;;;;;;23.17;3.30;;;29.70;6.50;;;;;;5026467;28;20471;-66
2022/06/26 11:48:25;;;;;;;23.40;2.73;;;29.80;6.50;;;;;;5019580;28;20459;-65
2022/06/26 11:50:53;;;;;;;23.57;3.27;;;29.80;6.50;;;;;;5025945;28;20542;-67
2022/06/26 11:53:23;;;;;;;22.43;3.10;;;29.70;5.70;;;;;;5028471;28;20482;-64
2022/06/26 11:55:53;;;;;;;23.00;3.23;;;29.70;7.20;;;;;;5023764;28;20564;-69
2022/06/26 11:58:22;;;;;;;23.07;3.10;;;29.70;7.50;;;;;;5016158;28;20872;-68
2022/06/26 12:00:51;;;;;;;23.70;4.17;;;29.80;8.10;;;;;;5016475;28;20479;-66
2022/06/26 12:03:18;;;;;;;22.50;2.90;;;29.90;7.20;;;;;;5016914;28;20492;-67
2022/06/26 12:05:45;;;;;;;23.57;3.27;;;29.90;8.20;;;;;;5018982;28;20475;-63
2022/06/26 12:08:17;;;;;;;24.93;2.70;;;29.90;8.20;;;;;;5018250;28;20463;-65
2022/06/26 12:10:50;;;;;;;23.70;3.10;;;30.00;7.20;;;;;;5018651;28;20468;-67
2022/06/26 12:13:25;;;;;;;23.17;2.70;;;29.90;6.50;;;;;;5024390;28;21062;-66
2022/06/26 12:15:53;;;;;;;26.80;2.97;;;29.70;6.10;;;;;;5023902;28;20482;-68
2022/06/26 12:18:20;;;;;;;23.90;3.20;;;29.70;7.30;;;;;;5009784;28;20587;-69
2022/06/26 12:20:51;;;;;;;23.30;3.20;;;29.80;7.90;;;;;;5017768;28;21117;-65
2022/06/26 12:23:19;;;;;;;23.70;2.70;;;29.70;6.80;;;;;;5021731;28;20474;-66
2022/06/26 12:25:49;;;;;;;23.10;2.70;;;29.80;7.00;;;;;;5022661;28;20459;-70
2022/06/26 12:28:23;;;;;;;24.90;3.70;;;29.70;6.80;;;;;;5017514;28;20978;-67
2022/06/26 12:30:50;;;;;;;25.40;4.07;;;29.70;5.90;;;;;;5013463;28;20459;-70
2022/06/26 12:33:19;;;;;;;24.30;3.60;;;29.50;6.70;;;;;;5025158;28;20585;-64
2022/06/26 12:35:45;;;;;;;24.90;3.53;;;29.40;6.70;;;;;;5027305;28;20489;-65
2022/06/26 12:38:12;;;;;;;24.07;3.00;;;29.30;6.60;;;;;;5022815;28;20456;-66
2022/06/26 12:40:39;;;;;;;23.13;2.90;;;29.20;6.80;;;;;;5023431;28;20546;-66
2022/06/26 12:43:06;;;;;;;24.50;5.10;;;29.20;7.20;;;;;;5016298;28;20467;-70
2022/06/26 12:45:33;;;;;;;23.57;3.20;;;29.20;7.30;;;;;;5015257;28;20463;-66
2022/06/26 12:47:59;;;;;;;23.50;3.10;;;29.20;7.20;;;;;;5019943;28;20470;-66
2022/06/26 12:50:28;;;;;;;24.30;3.03;;;29.20;7.40;;;;;;5024325;28;20489;-69
2022/06/26 12:52:54;;;;;;;24.07;3.27;;;29.20;7.90;;;;;;5025199;28;20459;-66
2022/06/26 12:55:21;;;;;;;25.17;3.63;;;29.30;7.50;;;;;;5017678;28;20499;-68
2022/06/26 12:57:49;;;;;;;28.00;2.70;;;29.40;7.20;;;;;;5015165;28;20551;-65
2022/06/26 13:00:16;;;;;;;25.20;2.90;;;29.50;7.00;;;;;;5022443;28;20455;-69